Gillette Campbell County Airport Gillette US
ICAO: KGCC
IATA: GCC
Category: Medium
Scheduled Services: Yes

Elevation: 4365 ft
TransAlt. 18000 ft.

Airport Communications:
ASOS:124.175
DENVER CNTR:135.6
CTAF:118.5
GND:121.7
CASPER RDO:122.3
TWR:118.5
UNICOM:122.95

KGCC Zoom In..

If you have problems with the map follow the link
https://www.worldairports.se/pages/airport.php?
ICAO=KGCC

Runways:

(A) RW 03 length 5803 ft width 75 ft
---- / hdg 26

(B) RW 16 length 7501 ft width 150 ft
---- / hdg 158

(C) RW 21 length 5803 ft width 75 ft
---- / hdg 206

(D) RW 34 length 7501 ft width 150 ft
ILS 110.10 / hdg 338

Location; KGCC
Day. 18 / Time. 06.53 Zulu
* Altimeter: 30.21
* Temperature: 06° c. 42.8°f.
* Wind from: 170° Speed 08 kn.
Dewpoint: 01° c.
Visibility: 10 Statute Miles.
Clouds: Clear (automated report).

KGCC 180653Z AUTO 17008KT 10SM CLR 06/01 A3021 RMK AO2 SLP216 T00610011 401720022


Wind From 170°
Speed 08 kn.

 
 
jpsmedia.com for Web Design worldairports.se 2018   terms of use